createdAt,value
2018-06-29T00:01:08.022Z,15.88
2018-06-29T00:02:07.953Z,15.85
2018-06-29T00:03:08.177Z,15.83
2018-06-29T00:04:07.935Z,15.83
2018-06-29T00:05:08.223Z,15.84
2018-06-29T00:07:08.038Z,15.77
2018-06-29T00:08:07.977Z,15.76
2018-06-29T00:10:08.064Z,15.70
2018-06-29T00:11:07.837Z,15.78
2018-06-29T00:12:07.821Z,15.83
2018-06-29T00:13:07.867Z,15.80
2018-06-29T00:16:07.769Z,15.73
2018-06-29T00:17:07.756Z,15.69
2018-06-29T00:19:07.782Z,15.65
2018-06-29T00:20:07.716Z,15.43
2018-06-29T00:21:07.740Z,15.26
2018-06-29T00:22:07.681Z,15.25
2018-06-29T00:23:07.668Z,15.11
2018-06-29T00:25:07.697Z,15.10
2018-06-29T00:26:07.652Z,14.97
2018-06-29T00:27:07.616Z,15.05
2018-06-29T00:28:07.598Z,15.04
2018-06-29T00:29:07.688Z,15.12
2018-06-29T00:30:07.580Z,15.14
2018-06-29T00:32:07.612Z,15.12
2018-06-29T00:33:07.637Z,15.19
2018-06-29T00:36:07.785Z,14.93
2018-06-29T00:37:07.476Z,14.79
2018-06-29T00:38:07.507Z,14.85
2018-06-29T00:39:07.442Z,14.78
2018-06-29T00:40:07.433Z,14.71
2018-06-29T00:41:07.612Z,14.66
2018-06-29T00:42:07.405Z,14.59
2018-06-29T00:43:07.393Z,14.56
2018-06-29T00:44:07.423Z,14.44
2018-06-29T00:45:07.368Z,14.45
2018-06-29T00:46:07.348Z,14.44
2018-06-29T00:47:07.344Z,14.41
2018-06-29T00:48:07.316Z,14.38
2018-06-29T00:49:07.305Z,14.53
2018-06-29T00:50:07.335Z,14.49
2018-06-29T00:52:07.261Z,14.52
2018-06-29T00:53:07.245Z,14.53
2018-06-29T00:54:07.234Z,14.44
2018-06-29T00:56:07.263Z,14.22
2018-06-29T00:58:07.169Z,14.19
2018-06-29T00:59:07.162Z,14.12
2018-06-29T01:01:07.129Z,13.82
2018-06-29T01:02:07.186Z,13.82
2018-06-29T01:03:07.100Z,13.78
2018-06-29T01:05:07.375Z,13.65
2018-06-29T01:06:07.056Z,13.61
2018-06-29T01:07:07.042Z,13.55
2018-06-29T01:08:07.095Z,13.51
2018-06-29T01:09:07.012Z,13.53
2018-06-29T01:11:07.287Z,13.67
2018-06-29T01:13:06.953Z,13.64
2018-06-29T01:14:06.987Z,13.71
2018-06-29T01:15:06.924Z,13.83
2018-06-29T01:16:06.941Z,13.86
2018-06-29T01:17:06.891Z,13.94
2018-06-29T01:18:06.874Z,14.03
2018-06-29T01:19:06.864Z,14.12
2018-06-29T01:20:06.895Z,14.12
2018-06-29T01:21:06.836Z,14.09
2018-06-29T01:22:09.850Z,14.13
2018-06-29T01:23:06.804Z,14.16
2018-06-29T01:24:06.806Z,14.19
2018-06-29T01:25:06.774Z,14.09
2018-06-29T01:26:06.808Z,14.12
2018-06-29T01:28:06.777Z,14.09
2018-06-29T01:29:06.816Z,14.09
2018-06-29T01:30:06.705Z,13.98
2018-06-29T01:31:06.683Z,13.97
2018-06-29T01:32:06.744Z,14.00
2018-06-29T01:33:06.659Z,13.98
2018-06-29T01:34:06.640Z,13.91
2018-06-29T01:35:06.628Z,13.90
2018-06-29T01:36:06.613Z,13.94
2018-06-29T01:37:06.620Z,13.86
2018-06-29T01:38:06.631Z,13.91
2018-06-29T01:40:06.643Z,13.91
2018-06-29T01:42:06.812Z,13.94
2018-06-29T01:43:06.500Z,13.90
2018-06-29T01:44:06.558Z,13.86
2018-06-29T01:45:06.572Z,13.86
2018-06-29T01:46:06.461Z,13.88
2018-06-29T01:47:06.550Z,13.86
2018-06-29T01:48:06.430Z,13.80
2018-06-29T01:49:06.417Z,13.82
2018-06-29T01:50:06.452Z,13.71
2018-06-29T01:51:06.408Z,13.76
2018-06-29T01:52:06.373Z,13.78
2018-06-29T01:53:06.351Z,13.73
2018-06-29T01:54:06.338Z,13.79
2018-06-29T01:55:06.373Z,13.79
2018-06-29T01:56:07.061Z,13.68
2018-06-29T01:57:06.286Z,13.63
2018-06-29T01:58:06.283Z,13.65
2018-06-29T01:59:06.274Z,13.63
2018-06-29T02:00:06.242Z,13.63
2018-06-29T02:01:06.229Z,13.49
2018-06-29T02:02:06.309Z,13.46
2018-06-29T02:03:06.295Z,13.43
2018-06-29T02:04:06.186Z,13.43
2018-06-29T02:05:06.168Z,13.40
2018-06-29T02:06:06.168Z,13.42
2018-06-29T02:07:06.135Z,13.39
2018-06-29T02:08:06.234Z,13.45
2018-06-29T02:09:06.110Z,13.42
2018-06-29T02:10:06.200Z,13.49
2018-06-29T02:11:06.075Z,13.53
2018-06-29T02:12:06.060Z,13.46
2018-06-29T02:13:06.045Z,13.45
2018-06-29T02:14:06.078Z,13.40
2018-06-29T02:16:06.003Z,13.26
2018-06-29T02:17:05.988Z,13.24
2018-06-29T02:18:05.972Z,13.16
2018-06-29T02:19:05.953Z,13.17
2018-06-29T02:20:05.988Z,13.08
2018-06-29T02:21:05.923Z,12.99
2018-06-29T02:22:05.910Z,12.86
2018-06-29T02:23:05.907Z,12.88
2018-06-29T02:24:05.875Z,12.90
2018-06-29T02:25:05.858Z,12.91
2018-06-29T02:26:05.899Z,12.83
2018-06-29T02:28:05.814Z,12.73
2018-06-29T02:29:05.804Z,12.72
2018-06-29T02:30:05.781Z,12.72
2018-06-29T02:31:05.769Z,12.71
2018-06-29T02:32:05.803Z,12.84
2018-06-29T02:33:05.738Z,12.96
2018-06-29T02:34:05.722Z,12.90
2018-06-29T02:35:05.705Z,12.87
2018-06-29T02:36:05.689Z,12.87
2018-06-29T02:37:05.679Z,12.90
2018-06-29T02:38:05.717Z,12.91
2018-06-29T02:39:05.640Z,12.88
2018-06-29T02:40:05.622Z,12.73
2018-06-29T02:41:05.609Z,12.72
2018-06-29T02:42:05.618Z,12.72
2018-06-29T02:44:05.611Z,12.68
2018-06-29T02:45:05.646Z,12.71
2018-06-29T02:46:05.533Z,12.73
2018-06-29T02:48:05.795Z,12.71
2018-06-29T02:49:05.602Z,12.66
2018-06-29T02:50:05.524Z,12.66
2018-06-29T02:51:05.446Z,12.66
2018-06-29T02:52:05.435Z,12.72
2018-06-29T02:53:05.419Z,12.62
2018-06-29T02:55:05.739Z,12.63
2018-06-29T02:56:05.423Z,12.53
2018-06-29T02:57:05.361Z,12.44
2018-06-29T02:58:05.376Z,12.65
2018-06-29T02:59:05.324Z,12.53
2018-06-29T03:00:05.320Z,12.51
2018-06-29T03:01:05.296Z,12.51
2018-06-29T03:02:05.327Z,12.50
2018-06-29T03:03:05.261Z,12.46
2018-06-29T03:04:05.241Z,12.53
2018-06-29T03:05:05.230Z,12.58
2018-06-29T03:06:05.217Z,12.61
2018-06-29T03:07:05.198Z,12.63
2018-06-29T03:08:05.234Z,12.72
2018-06-29T03:09:05.171Z,12.77
2018-06-29T03:11:05.218Z,12.83
2018-06-29T03:12:05.117Z,12.80
2018-06-29T03:14:05.384Z,12.73
2018-06-29T03:16:05.102Z,12.80
2018-06-29T03:18:05.019Z,12.77
2018-06-29T03:20:05.337Z,12.69
2018-06-29T03:22:04.979Z,12.63
2018-06-29T03:23:04.946Z,12.61
2018-06-29T03:24:04.924Z,12.62
2018-06-29T03:25:05.013Z,12.54
2018-06-29T03:26:04.941Z,12.47
2018-06-29T03:27:04.876Z,12.47
2018-06-29T03:28:04.867Z,12.43
2018-06-29T03:29:04.841Z,12.44
2018-06-29T03:30:04.929Z,12.48
2018-06-29T03:31:04.827Z,12.46
2018-06-29T03:32:04.844Z,12.44
2018-06-29T03:33:04.809Z,12.61
2018-06-29T03:34:04.764Z,12.63
2018-06-29T03:37:04.713Z,12.68
2018-06-29T03:40:05.023Z,12.77
2018-06-29T03:41:04.913Z,12.80
2018-06-29T03:44:04.600Z,12.91
2018-06-29T03:45:04.586Z,12.86
2018-06-29T03:46:04.628Z,12.93
2018-06-29T03:47:04.556Z,12.91
2018-06-29T03:48:04.541Z,12.79
2018-06-29T03:49:04.531Z,12.79
2018-06-29T03:50:04.507Z,12.77
2018-06-29T03:51:04.490Z,12.76
2018-06-29T03:52:04.526Z,12.73
2018-06-29T03:53:04.457Z,12.77
2018-06-29T03:54:04.445Z,12.73
2018-06-29T03:55:04.427Z,12.86
2018-06-29T03:56:04.411Z,12.83
2018-06-29T03:57:04.399Z,12.87
2018-06-29T03:58:04.426Z,12.87
2018-06-29T04:00:04.355Z,12.87
2018-06-29T04:01:04.382Z,12.98
2018-06-29T04:02:04.319Z,12.90
2018-06-29T04:03:04.302Z,12.99
2018-06-29T04:04:04.336Z,13.01
2018-06-29T04:05:04.369Z,13.05
2018-06-29T04:06:04.253Z,12.99
2018-06-29T04:07:04.237Z,13.02
2018-06-29T04:08:05.394Z,13.05
2018-06-29T04:09:04.211Z,13.04
2018-06-29T04:10:04.241Z,13.16
2018-06-29T04:11:04.171Z,13.16
2018-06-29T04:12:04.157Z,13.13
2018-06-29T04:13:04.138Z,13.24
2018-06-29T04:14:04.124Z,13.24
2018-06-29T04:15:04.115Z,13.30
2018-06-29T04:16:04.145Z,13.39
2018-06-29T04:17:04.317Z,13.36
2018-06-29T04:18:04.076Z,13.39
2018-06-29T04:19:04.054Z,13.42
2018-06-29T04:20:04.031Z,13.45
2018-06-29T04:21:04.019Z,13.42
2018-06-29T04:22:04.150Z,13.53
2018-06-29T04:24:04.070Z,13.64
2018-06-29T04:26:03.944Z,13.63
2018-06-29T04:27:03.922Z,13.65
2018-06-29T04:29:03.896Z,13.78
2018-06-29T04:30:03.877Z,13.72
2018-06-29T04:31:03.933Z,13.78
2018-06-29T04:32:03.850Z,13.83
2018-06-29T04:34:03.865Z,13.80
2018-06-29T04:35:03.798Z,13.90
2018-06-29T04:36:03.926Z,13.93
2018-06-29T04:37:03.904Z,14.04
2018-06-29T04:38:03.766Z,14.13
2018-06-29T04:39:03.740Z,14.21
2018-06-29T04:41:03.707Z,14.26
2018-06-29T04:42:03.794Z,14.34
2018-06-29T04:43:03.673Z,14.48
2018-06-29T04:44:03.662Z,14.53
2018-06-29T04:45:03.748Z,14.59
2018-06-29T04:46:03.681Z,14.78
2018-06-29T04:47:03.616Z,14.85
2018-06-29T04:48:03.762Z,14.96
2018-06-29T04:50:03.570Z,15.25
2018-06-29T04:51:03.555Z,15.32
2018-06-29T04:52:03.589Z,15.41
2018-06-29T04:53:03.525Z,15.51
2018-06-29T04:54:03.531Z,15.66
2018-06-29T04:55:03.495Z,15.73
2018-06-29T04:56:03.524Z,15.70
2018-06-29T04:57:03.467Z,15.84
2018-06-29T04:58:03.503Z,15.88
2018-06-29T04:59:03.456Z,15.93
2018-06-29T05:00:03.426Z,16.13
2018-06-29T05:01:03.561Z,16.39
2018-06-29T05:02:03.407Z,16.62
2018-06-29T05:03:03.570Z,16.80
2018-06-29T05:04:03.431Z,16.94
2018-06-29T05:05:03.363Z,17.01
2018-06-29T05:08:03.340Z,17.31
2018-06-29T05:09:03.300Z,17.43
2018-06-29T05:10:03.332Z,17.39
2018-06-29T05:12:03.318Z,17.63
2018-06-29T05:13:03.244Z,17.83
2018-06-29T05:14:03.225Z,17.81
2018-06-29T05:15:03.223Z,17.88
2018-06-29T05:16:03.248Z,17.94
2018-06-29T05:17:03.304Z,17.99
2018-06-29T05:18:03.176Z,18.11
2018-06-29T05:21:03.442Z,18.15
2018-06-29T05:22:03.377Z,18.11
2018-06-29T05:23:03.159Z,18.27
2018-06-29T05:24:03.097Z,18.21
2018-06-29T05:25:03.095Z,18.28
2018-06-29T05:28:03.395Z,18.39
2018-06-29T05:29:03.023Z,18.57
2018-06-29T05:32:03.004Z,18.67
2018-06-29T05:33:03.000Z,18.70
2018-06-29T05:34:03.016Z,18.68
2018-06-29T05:35:02.947Z,18.74
2018-06-29T05:36:02.935Z,18.67
2018-06-29T05:37:02.939Z,18.74
2018-06-29T05:38:02.932Z,18.89
2018-06-29T05:39:02.891Z,18.78
2018-06-29T05:40:02.938Z,18.83
2018-06-29T05:41:02.869Z,18.83
2018-06-29T05:42:02.856Z,18.94
2018-06-29T05:43:02.844Z,19.01
2018-06-29T05:44:02.852Z,19.00
2018-06-29T05:45:02.922Z,18.96
2018-06-29T05:47:03.171Z,19.00
2018-06-29T05:48:02.790Z,19.08
2018-06-29T05:49:02.769Z,19.04
2018-06-29T05:50:02.805Z,19.13
2018-06-29T05:51:02.800Z,19.07
2018-06-29T05:52:02.820Z,19.15
2018-06-29T05:53:03.438Z,19.08
2018-06-29T05:54:02.753Z,19.13
2018-06-29T05:55:02.714Z,19.20
2018-06-29T05:56:02.715Z,19.24
2018-06-29T05:58:03.017Z,19.38
2018-06-29T05:59:02.721Z,19.32
2018-06-29T06:00:02.714Z,19.35
2018-06-29T06:02:02.701Z,19.49
2018-06-29T06:03:02.715Z,19.52
2018-06-29T06:04:02.839Z,19.50
2018-06-29T06:05:02.930Z,19.56
2018-06-29T06:06:02.868Z,19.70
2018-06-29T06:08:02.537Z,19.63
2018-06-29T06:09:02.575Z,19.72
2018-06-29T06:10:03.025Z,19.75
2018-06-29T06:11:02.609Z,19.82
2018-06-29T06:12:04.208Z,19.79
2018-06-29T06:13:03.177Z,19.92
2018-06-29T06:14:02.903Z,19.93
2018-06-29T06:15:03.369Z,19.90
2018-06-29T06:16:02.905Z,20.07
2018-06-29T06:17:02.555Z,20.22
2018-06-29T06:18:02.724Z,20.18
2018-06-29T06:19:02.638Z,20.32
2018-06-29T06:20:02.669Z,20.36
2018-06-29T06:21:02.760Z,20.41
2018-06-29T06:24:02.756Z,20.42
2018-06-29T06:25:02.877Z,20.53
2018-06-29T06:26:02.327Z,20.56
2018-06-29T06:27:02.623Z,20.70
2018-06-29T06:28:02.976Z,20.73
2018-06-29T06:29:02.393Z,20.75
2018-06-29T06:30:03.348Z,20.79
2018-06-29T06:31:02.750Z,20.86
2018-06-29T06:33:02.256Z,20.89
2018-06-29T06:34:03.892Z,20.86
2018-06-29T06:35:02.315Z,21.03
2018-06-29T06:36:02.245Z,21.04
2018-06-29T06:37:02.336Z,21.05
2018-06-29T06:38:02.312Z,21.04
2018-06-29T06:39:02.229Z,21.01
2018-06-29T06:40:02.440Z,21.13
2018-06-29T06:41:02.325Z,21.13
2018-06-29T06:42:02.440Z,21.16
2018-06-29T06:43:02.569Z,21.14
2018-06-29T06:45:03.107Z,21.25
2018-06-29T06:46:02.744Z,21.23
2018-06-29T06:47:02.512Z,21.41
2018-06-29T06:50:02.822Z,21.43
2018-06-29T06:51:02.556Z,21.58
2018-06-29T06:52:02.070Z,21.55
2018-06-29T06:53:02.991Z,21.51
2018-06-29T06:54:02.735Z,21.60
2018-06-29T06:55:02.112Z,21.62
2018-06-29T06:56:02.110Z,21.65
2018-06-29T06:57:02.648Z,21.77
2018-06-29T06:58:02.381Z,21.78
2018-06-29T06:59:02.621Z,21.80
2018-06-29T07:00:02.197Z,21.80
2018-06-29T07:01:02.138Z,21.85
2018-06-29T07:02:02.524Z,21.81
2018-06-29T07:03:02.132Z,21.91
2018-06-29T07:04:01.991Z,21.94
2018-06-29T07:05:02.279Z,21.97
2018-06-29T07:06:02.181Z,21.93
2018-06-29T07:07:02.003Z,21.96
2018-06-29T07:08:02.688Z,22.04
2018-06-29T07:09:01.985Z,22.21
2018-06-29T07:10:01.958Z,22.01
2018-06-29T07:13:01.979Z,22.23
2018-06-29T07:14:02.157Z,22.36
2018-06-29T07:15:02.550Z,22.34
2018-06-29T09:55:31.981Z,31.38
2018-06-29T09:56:31.931Z,31.68
2018-06-29T09:57:31.936Z,31.74
2018-06-29T09:58:32.134Z,31.48
2018-06-29T09:59:32.136Z,31.75
2018-06-29T10:00:32.644Z,31.81
2018-06-29T10:01:32.122Z,31.38
2018-06-29T10:03:31.940Z,31.38
2018-06-29T10:04:31.942Z,31.08
2018-06-29T10:05:31.935Z,31.19
2018-06-29T10:06:45.026Z,31.22
2018-06-29T10:07:32.139Z,31.26
2018-06-29T10:08:31.942Z,31.07
2018-06-29T10:09:33.404Z,30.92
2018-06-29T10:10:31.990Z,30.62
2018-06-29T10:11:31.940Z,30.65
2018-06-29T10:12:32.461Z,30.67
2018-06-29T10:13:31.940Z,30.78
2018-06-29T10:14:32.049Z,30.96
2018-06-29T10:15:32.145Z,30.88
2018-06-29T10:16:32.599Z,31.34
2018-06-29T10:17:38.275Z,31.44
2018-06-29T10:18:31.947Z,31.24
2018-06-29T10:19:32.300Z,30.95
2018-06-29T10:20:31.955Z,30.86
2018-06-29T10:21:31.948Z,30.89
2018-06-29T10:22:32.391Z,30.62
2018-06-29T10:23:31.949Z,30.75
2018-06-29T10:24:31.957Z,30.96
2018-06-29T10:25:32.347Z,31.48
2018-06-29T10:26:31.958Z,31.54
2018-06-29T10:28:33.420Z,31.97
2018-06-29T10:29:31.951Z,31.74
2018-06-29T10:30:31.953Z,31.30
2018-06-29T10:31:32.864Z,31.33
2018-06-29T10:32:31.954Z,31.05
2018-06-29T10:33:32.216Z,31.75
2018-06-29T10:34:32.566Z,32.05
2018-06-29T10:36:32.165Z,31.79
2018-06-29T10:37:32.304Z,31.27
2018-06-29T10:38:31.964Z,31.12
2018-06-29T10:39:32.622Z,31.57
2018-06-29T10:40:31.969Z,31.78
2018-06-29T10:41:32.050Z,31.51
2018-06-29T10:42:31.968Z,31.52
2018-06-29T10:43:33.687Z,31.64
2018-06-29T10:44:32.022Z,31.84
2018-06-29T10:45:32.024Z,32.26
2018-06-29T10:46:31.986Z,32.20
2018-06-29T10:47:31.992Z,32.20
2018-06-29T10:49:32.281Z,31.89
2018-06-29T10:50:31.982Z,32.09
2018-06-29T10:51:32.056Z,32.20
2018-06-29T10:53:31.994Z,31.79
2018-06-29T10:54:31.989Z,31.99
2018-06-29T10:55:32.292Z,31.97
2018-06-29T10:56:31.992Z,31.61
2018-06-29T10:57:32.345Z,31.52
2018-06-29T10:58:32.056Z,31.81
2018-06-29T10:59:31.998Z,31.81
2018-06-29T11:00:32.003Z,32.13
2018-06-29T11:01:32.002Z,31.89
2018-06-29T11:02:32.010Z,31.82
2018-06-29T11:03:32.082Z,31.68
2018-06-29T11:04:32.009Z,31.51
2018-06-29T11:05:32.128Z,31.75
2018-06-29T11:06:38.277Z,32.14
2018-06-29T11:07:32.519Z,32.27
2018-06-29T11:08:32.017Z,31.76
2018-06-29T11:09:32.681Z,30.77
2018-06-29T11:10:32.019Z,30.99
2018-06-29T11:11:32.026Z,31.05
2018-06-29T11:12:32.022Z,31.41
2018-06-29T11:13:32.072Z,31.01
2018-06-29T11:14:32.033Z,30.17
2018-06-29T11:15:38.307Z,30.80
2018-06-29T11:16:32.229Z,31.02
2018-06-29T11:17:32.033Z,31.24
2018-06-29T11:18:58.003Z,31.61
2018-06-29T11:19:32.077Z,31.78
2018-06-29T11:20:32.081Z,32.39
2018-06-29T11:21:32.033Z,32.02
2018-06-29T11:22:32.086Z,32.02
2018-06-29T11:23:32.036Z,31.52
2018-06-29T11:24:32.338Z,31.17
2018-06-29T11:25:32.040Z,31.26
2018-06-29T11:26:32.094Z,31.32
2018-06-29T11:27:32.043Z,31.19
2018-06-29T11:28:32.047Z,31.41
2018-06-29T11:29:32.054Z,31.48
2018-06-29T11:30:32.359Z,30.92
2018-06-29T11:31:32.100Z,30.86
2018-06-29T11:32:32.661Z,30.89
2018-06-29T11:33:32.058Z,30.62
2018-06-29T11:34:32.052Z,30.22
2018-06-29T11:35:32.064Z,29.84
2018-06-29T11:36:32.357Z,30.21
2018-06-29T11:37:32.110Z,29.99
2018-06-29T11:38:32.106Z,29.62
2018-06-29T11:39:32.061Z,29.81
2018-06-29T11:40:32.076Z,30.70
2018-06-29T11:41:32.060Z,30.97
2018-06-29T11:42:32.097Z,30.95
2018-06-29T11:43:32.362Z,30.78
2018-06-29T11:44:32.414Z,30.39
2018-06-29T11:45:32.064Z,30.13
2018-06-29T11:46:32.059Z,29.93
2018-06-29T11:47:32.061Z,29.83
2018-06-29T11:48:33.482Z,30.30
2018-06-29T11:49:32.358Z,30.51
2018-06-29T11:50:32.108Z,30.10
2018-06-29T11:51:32.923Z,29.77
2018-06-29T11:52:32.057Z,29.50
2018-06-29T11:53:35.089Z,29.92
2018-06-29T11:54:32.056Z,30.08
2018-06-29T11:55:32.356Z,30.48
2018-06-29T11:56:32.106Z,30.90
2018-06-29T11:57:32.054Z,31.41
2018-06-29T11:58:32.055Z,31.79
2018-06-29T11:59:33.466Z,31.75
2018-06-29T12:00:33.499Z,31.99
2018-06-29T12:01:33.768Z,31.79
2018-06-29T12:02:32.098Z,31.67
2018-06-29T12:03:32.045Z,31.98
2018-06-29T12:04:32.057Z,32.08
2018-06-29T12:05:32.249Z,32.06
2018-06-29T12:06:32.096Z,32.19
2018-06-29T12:07:32.369Z,31.74
2018-06-29T12:08:32.053Z,31.79
2018-06-29T12:09:38.346Z,32.02
2018-06-29T12:10:32.051Z,32.16
2018-06-29T12:11:32.066Z,32.19
2018-06-29T12:12:32.109Z,32.19
2018-06-29T12:13:32.049Z,32.26
2018-06-29T12:14:32.066Z,32.21
2018-06-29T12:15:32.054Z,32.55
2018-06-29T12:16:32.048Z,32.70
2018-06-29T12:17:32.056Z,32.55
2018-06-29T12:18:32.102Z,32.90
2018-06-29T12:19:32.354Z,33.03
2018-06-29T12:20:32.053Z,33.24
2018-06-29T12:21:32.062Z,33.17
2018-06-29T12:22:32.061Z,32.95
2018-06-29T12:23:32.057Z,32.99
2018-06-29T12:24:32.429Z,33.35
2018-06-29T12:25:32.444Z,33.71
2018-06-29T12:26:32.087Z,33.45
2018-06-29T12:27:32.057Z,33.51
2018-06-29T12:28:32.068Z,33.49
2018-06-29T12:29:32.072Z,33.42
2018-06-29T12:30:32.115Z,33.37
2018-06-29T12:31:32.367Z,33.13
2018-06-29T12:32:32.064Z,32.73
2018-06-29T12:33:32.070Z,32.38
2018-06-29T12:34:32.067Z,32.17
2018-06-29T12:35:32.116Z,31.99
2018-06-29T12:36:32.071Z,32.20
2018-06-29T12:37:32.369Z,32.57
2018-06-29T12:38:32.079Z,32.72
2018-06-29T12:39:32.071Z,32.77
2018-06-29T12:40:32.078Z,32.61
2018-06-29T12:41:32.126Z,32.95
2018-06-29T12:42:32.073Z,33.06
2018-06-29T12:43:32.083Z,32.98
2018-06-29T12:44:32.376Z,32.31
2018-06-29T12:45:32.082Z,32.61
2018-06-29T12:46:32.080Z,32.54
2018-06-29T12:47:32.137Z,33.24
2018-06-29T12:48:32.080Z,33.09
2018-06-29T12:49:32.088Z,32.85
2018-06-29T12:50:32.085Z,33.16
2018-06-29T12:51:32.443Z,33.09
2018-06-29T12:52:32.094Z,32.23
2018-06-29T12:53:32.154Z,32.68
2018-06-29T12:54:32.103Z,32.32
2018-06-29T12:55:32.108Z,32.90
2018-06-29T12:56:32.113Z,32.65
2018-06-29T12:57:32.410Z,32.83
2018-06-29T12:58:32.190Z,32.98
2018-06-29T12:59:32.105Z,32.82
2018-06-29T13:00:32.106Z,32.41
2018-06-29T13:01:32.106Z,32.39
2018-06-29T13:02:32.108Z,32.19
2018-06-29T13:03:33.822Z,32.38
2018-06-29T13:04:32.159Z,32.17
2018-06-29T13:05:32.319Z,32.20
2018-06-29T13:06:32.112Z,31.76
2018-06-29T13:07:32.725Z,31.78
2018-06-29T13:08:32.125Z,32.13
2018-06-29T13:09:32.426Z,32.20
2018-06-29T13:10:32.173Z,32.19
2018-06-29T13:11:32.128Z,32.23
2018-06-29T13:12:32.126Z,31.95
2018-06-29T13:13:32.130Z,32.21
2018-06-29T13:14:32.129Z,32.63
2018-06-29T13:15:32.433Z,33.13
2018-06-29T13:16:32.182Z,32.87
2018-06-29T13:17:32.133Z,32.88
2018-06-29T13:18:32.138Z,32.94
2018-06-29T13:19:32.145Z,33.49
2018-06-29T13:20:32.139Z,33.69
2018-06-29T13:21:32.443Z,33.92
2018-06-29T13:22:32.493Z,33.09
2018-06-29T13:23:33.559Z,32.61
2018-06-29T13:24:32.754Z,32.57
2018-06-29T13:25:32.199Z,32.76
2018-06-29T13:26:32.151Z,32.54
2018-06-29T13:27:32.656Z,32.01
2018-06-29T13:28:32.772Z,32.54
2018-06-29T13:29:33.573Z,32.94
2018-06-29T13:30:33.585Z,33.01
2018-06-29T13:31:33.630Z,32.92
2018-06-29T13:32:33.585Z,32.51
2018-06-29T13:33:32.670Z,32.21
2018-06-29T13:34:32.367Z,32.21
2018-06-29T13:35:32.173Z,32.58
2018-06-29T13:36:32.776Z,32.99
2018-06-29T13:37:32.221Z,32.77
2018-06-29T13:38:33.603Z,32.61
2018-06-29T13:39:32.484Z,32.95
2018-06-29T13:40:32.178Z,33.49
2018-06-29T13:41:32.185Z,33.29
2018-06-29T13:42:32.183Z,33.47
2018-06-29T13:43:32.233Z,33.44
2018-06-29T13:44:32.222Z,33.52
2018-06-29T13:45:32.506Z,33.37
2018-06-29T13:46:32.283Z,33.39
2018-06-29T13:47:32.202Z,33.63
2018-06-29T13:48:32.195Z,33.74
2018-06-29T13:49:32.267Z,33.63
2018-06-29T13:50:32.246Z,33.67
2018-06-29T13:51:32.203Z,33.36
2018-06-29T13:52:32.199Z,33.12
2018-06-29T13:53:32.209Z,32.97
2018-06-29T13:54:32.205Z,33.22
2018-06-29T13:55:32.410Z,33.51
2018-06-29T13:56:32.258Z,33.49
2018-06-29T13:57:32.264Z,33.09
2018-06-29T13:58:32.224Z,33.13
2018-06-29T13:59:32.218Z,32.79
2018-06-29T14:00:32.841Z,33.26
2018-06-29T14:01:32.219Z,33.67
2018-06-29T14:02:32.950Z,33.16
2018-06-29T14:03:32.223Z,33.33
2018-06-29T14:04:32.231Z,33.20
2018-06-29T14:05:32.226Z,32.99
2018-06-29T14:06:32.228Z,32.91
2018-06-29T14:07:32.442Z,33.20
2018-06-29T14:08:32.283Z,32.97
2018-06-29T14:09:32.537Z,33.17
2018-06-29T14:10:32.238Z,33.30
2018-06-29T14:11:32.309Z,33.47
2018-06-29T14:12:32.252Z,33.33
2018-06-29T14:13:32.247Z,32.72
2018-06-29T14:14:32.297Z,32.98
2018-06-29T14:15:32.551Z,33.26
2018-06-29T14:16:35.305Z,33.36
2018-06-29T14:17:33.671Z,33.27
2018-06-29T14:18:32.258Z,33.29
2018-06-29T14:19:32.313Z,33.17
2018-06-29T14:20:32.259Z,33.54
2018-06-29T14:21:32.265Z,33.62
2018-06-29T14:22:32.567Z,33.73
2018-06-29T14:23:32.269Z,34.03
2018-06-29T14:24:45.357Z,33.48
2018-06-29T14:25:32.274Z,32.83
2018-06-29T14:26:32.277Z,32.95
2018-06-29T14:27:32.287Z,32.77
2018-06-29T14:28:32.580Z,32.57
2018-06-29T14:29:32.281Z,32.53
2018-06-29T14:30:32.333Z,32.55
2018-06-29T14:31:32.285Z,31.97
2018-06-29T14:32:32.288Z,32.01
2018-06-29T14:33:32.295Z,32.57
2018-06-29T14:34:32.598Z,33.06
2018-06-29T14:35:32.313Z,33.06
2018-06-29T14:36:32.358Z,32.57
2018-06-29T14:37:32.300Z,32.27
2018-06-29T14:38:32.303Z,32.51
2018-06-29T14:39:32.305Z,32.13
2018-06-29T14:40:32.606Z,31.66
2018-06-29T14:41:32.371Z,31.66
2018-06-29T14:42:32.310Z,31.60
2018-06-29T14:43:32.917Z,31.42
2018-06-29T14:44:32.314Z,31.37
2018-06-29T14:45:32.313Z,31.57
2018-06-29T14:46:32.651Z,31.54
2018-06-29T14:47:32.667Z,31.41
2018-06-29T14:48:32.320Z,31.15
2018-06-29T14:49:32.343Z,31.01
2018-06-29T14:50:32.321Z,30.68
2018-06-29T14:51:32.320Z,30.52
2018-06-29T14:52:32.624Z,30.95
2018-06-29T14:53:32.382Z,31.17
2018-06-29T14:54:32.326Z,31.23
2018-06-29T14:55:32.328Z,31.29
2018-06-29T14:56:32.327Z,31.44
2018-06-29T14:57:45.066Z,31.60
2018-06-29T14:58:32.627Z,31.66
2018-06-29T14:59:32.328Z,31.82
2018-06-29T15:00:32.334Z,32.09
2018-06-29T15:01:32.535Z,31.86
2018-06-29T15:02:32.533Z,31.71
2018-06-29T15:03:32.330Z,31.15
2018-06-29T15:04:32.393Z,31.49
2018-06-29T15:05:32.357Z,31.76
2018-06-29T15:06:32.334Z,31.66
2018-06-29T15:07:32.336Z,31.54
2018-06-29T15:08:32.339Z,31.39
2018-06-29T15:09:32.453Z,31.49
2018-06-29T15:10:32.349Z,31.07
2018-06-29T15:11:32.337Z,30.95
2018-06-29T15:12:32.336Z,30.85
2018-06-29T15:13:32.337Z,30.49
2018-06-29T15:14:32.343Z,30.77
2018-06-29T15:15:32.389Z,31.05
2018-06-29T15:16:32.662Z,31.26
2018-06-29T15:17:32.342Z,31.45
2018-06-29T15:18:32.342Z,31.49
2018-06-29T15:19:32.340Z,31.29
2018-06-29T15:20:32.341Z,30.55
2018-06-29T15:21:32.415Z,30.14
2018-06-29T15:22:32.338Z,29.98
2018-06-29T15:23:32.338Z,29.81
2018-06-29T15:24:33.766Z,29.70
2018-06-29T15:25:32.343Z,29.89
2018-06-29T15:26:32.945Z,30.02
2018-06-29T15:27:32.488Z,30.29
2018-06-29T15:28:32.339Z,29.81
2018-06-29T15:29:32.541Z,29.59
2018-06-29T15:30:32.340Z,29.84
2018-06-29T15:31:32.633Z,30.53
2018-06-29T15:32:32.338Z,30.59
2018-06-29T15:33:32.444Z,30.52
2018-06-29T15:34:32.547Z,31.01
2018-06-29T15:35:32.639Z,30.58
2018-06-29T15:36:32.334Z,30.32
2018-06-29T15:37:32.334Z,30.65
2018-06-29T15:38:32.385Z,30.99
2018-06-29T15:39:32.359Z,31.12
2018-06-29T15:40:32.352Z,31.24
2018-06-29T15:41:32.638Z,30.51
2018-06-29T15:42:32.337Z,29.96
2018-06-29T15:43:35.402Z,29.89
2018-06-29T15:44:32.683Z,29.92
2018-06-29T15:45:32.338Z,30.03
2018-06-29T15:46:32.352Z,30.05
2018-06-29T15:47:32.630Z,30.18
2018-06-29T15:48:32.334Z,30.32
2018-06-29T15:49:32.349Z,30.49
2018-06-29T15:50:32.379Z,30.33
2018-06-29T15:51:32.327Z,30.55
2018-06-29T15:52:32.333Z,30.78
2018-06-29T15:53:32.326Z,30.95
2018-06-29T15:54:51.833Z,31.23
2018-06-29T15:55:32.330Z,31.22
2018-06-29T15:56:35.478Z,31.12
2018-06-29T15:57:35.361Z,30.93
2018-06-29T15:58:35.359Z,30.78
2018-06-29T16:00:32.636Z,30.20
2018-06-29T16:01:32.446Z,30.48
2018-06-29T16:02:32.325Z,30.64
2018-06-29T16:03:32.328Z,30.93
2018-06-29T16:04:32.333Z,30.68
2018-06-29T16:05:32.325Z,30.68
2018-06-29T16:06:35.679Z,30.82
2018-06-29T16:07:33.296Z,31.15
2018-06-29T16:08:32.356Z,31.22
2018-06-29T16:09:32.329Z,30.67
2018-06-29T16:10:32.342Z,30.59
2018-06-29T16:11:32.326Z,30.49
2018-06-29T16:12:32.327Z,30.13
2018-06-29T16:13:32.699Z,29.99
2018-06-29T16:14:32.552Z,29.74
2018-06-29T16:15:32.580Z,29.98
2018-06-29T16:16:32.357Z,29.92
2018-06-29T16:17:32.334Z,29.96
2018-06-29T16:18:32.391Z,30.37
2018-06-29T16:19:32.660Z,30.51
2018-06-29T16:20:32.382Z,30.78
2018-06-29T16:21:32.338Z,30.80
2018-06-29T16:22:32.598Z,30.96
2018-06-29T16:23:32.546Z,31.07
2018-06-29T16:24:36.925Z,31.29
2018-06-29T16:25:32.332Z,30.88
2018-06-29T16:26:32.547Z,30.59
2018-06-29T16:27:33.407Z,30.43
2018-06-29T16:28:32.337Z,30.43
2018-06-29T16:29:32.425Z,30.53
2018-06-29T16:30:32.684Z,30.74
2018-06-29T16:31:32.352Z,30.89
2018-06-29T16:32:32.348Z,31.02
2018-06-29T16:33:32.966Z,31.05
2018-06-29T16:34:32.560Z,30.83
2018-06-29T16:35:32.453Z,30.70
2018-06-29T16:36:32.660Z,30.64
2018-06-29T16:37:32.405Z,30.67
2018-06-29T16:38:32.356Z,30.58
2018-06-29T16:39:32.555Z,30.37
2018-06-29T16:40:32.364Z,30.39
2018-06-29T16:41:33.864Z,30.43
2018-06-29T16:42:32.641Z,30.32